Time;durP1;ratioP1;P1;durP2;ratioP2;P2;SDS_P1;SDS_P2;PMS_P1;PMS_P2;Temp;Humidity;BMP_temperature;BMP_pressure;BME280_temperature;BME280_humidity;BME280_pressure;Samples;Min_cycle;Max_cycle;Signal;HPM_P1;HPM_P2
2022/03/23 00:02:08;;;;;;;26.13;16.20;;;;;;;;;;4984818;28;20418;-55
2022/03/23 00:04:34;;;;;;;22.40;14.67;;;;;;;;;;4966682;28;20848;-55
2022/03/23 00:07:00;;;;;;;22.20;13.93;;;;;;;;;;4981552;28;20521;-55
2022/03/23 00:09:26;;;;;;;26.97;15.10;;;;;;;;;;4986468;28;20918;-53
2022/03/23 00:11:53;;;;;;;24.57;14.20;;;;;;;;;;4973379;28;20434;-53
2022/03/23 00:14:19;;;;;;;23.00;14.37;;;;;;;;;;4981522;28;20425;-53
2022/03/23 00:16:45;;;;;;;25.70;14.17;;;;;;;;;;4980547;28;20434;-54
2022/03/23 00:19:11;;;;;;;25.60;14.10;;;;;;;;;;4978032;28;20502;-53
2022/03/23 00:21:38;;;;;;;24.43;15.17;;;;;;;;;;4978185;28;20470;-54
2022/03/23 00:24:05;;;;;;;25.17;15.90;;;;;;;;;;4981536;28;20422;-54
2022/03/23 00:26:31;;;;;;;26.90;15.37;;;;;;;;;;4981172;28;20438;-53
2022/03/23 00:28:57;;;;;;;31.33;17.40;;;;;;;;;;4982529;28;20489;-53
2022/03/23 00:31:23;;;;;;;20.20;14.40;;;;;;;;;;4982695;28;20840;-55
2022/03/23 00:33:54;;;;;;;34.50;17.77;;;;;;;;;;4981400;28;20489;-53
2022/03/23 00:36:20;;;;;;;26.77;13.60;;;;;;;;;;4979795;28;20493;-53
2022/03/23 00:38:47;;;;;;;22.43;15.43;;;;;;;;;;4982342;28;20470;-53
2022/03/23 00:41:13;;;;;;;28.50;15.33;;;;;;;;;;4979666;28;20418;-53
2022/03/23 00:43:39;;;;;;;25.50;14.40;;;;;;;;;;4982677;28;20418;-53
2022/03/23 00:46:05;;;;;;;28.40;16.20;;;;;;;;;;4979427;28;20427;-53
2022/03/23 00:48:31;;;;;;;24.43;15.47;;;;;;;;;;4979471;28;20760;-53
2022/03/23 00:50:57;;;;;;;26.13;15.70;;;;;;;;;;4981939;28;20509;-53
2022/03/23 00:53:23;;;;;;;21.10;14.80;;;;;;;;;;4982671;28;20461;-53
2022/03/23 00:55:49;;;;;;;25.13;15.40;;;;;;;;;;4981943;28;20756;-53
2022/03/23 00:58:15;;;;;;;24.40;15.80;;;;;;;;;;4985979;28;20307;-53
2022/03/23 01:00:45;;;;;;;21.60;14.70;;;;;;;;;;4979680;28;21034;-54
2022/03/23 01:03:11;;;;;;;23.90;15.50;;;;;;;;;;4985844;28;20435;-53
2022/03/23 01:05:37;;;;;;;22.87;14.57;;;;;;;;;;4979451;28;20851;-53
2022/03/23 01:08:03;;;;;;;26.20;14.23;;;;;;;;;;4982686;28;20422;-53
2022/03/23 01:10:30;;;;;;;25.13;14.73;;;;;;;;;;4982827;28;20418;-54
2022/03/23 01:12:56;;;;;;;35.07;15.40;;;;;;;;;;4980433;28;20473;-54
2022/03/23 01:15:22;;;;;;;24.60;13.90;;;;;;;;;;4979323;28;20867;-53
2022/03/23 01:17:49;;;;;;;33.40;12.77;;;;;;;;;;4983577;28;20473;-53
2022/03/23 01:20:15;;;;;;;23.00;14.70;;;;;;;;;;4967187;28;21035;-53
2022/03/23 01:22:43;;;;;;;20.27;14.33;;;;;;;;;;4985905;28;20513;-54
2022/03/23 01:25:09;;;;;;;20.00;13.43;;;;;;;;;;4982734;28;20423;-53
2022/03/23 01:27:36;;;;;;;19.13;13.57;;;;;;;;;;4990304;28;20422;-53
2022/03/23 01:30:05;;;;;;;19.00;12.80;;;;;;;;;;4982537;28;20435;-53
2022/03/23 01:32:31;;;;;;;22.73;13.27;;;;;;;;;;4982556;28;20427;-53
2022/03/23 01:34:57;;;;;;;20.53;12.70;;;;;;;;;;4984890;28;20493;-53
2022/03/23 01:37:23;;;;;;;23.10;13.10;;;;;;;;;;4987383;28;20466;-53
2022/03/23 01:39:49;;;;;;;17.40;11.47;;;;;;;;;;4983652;28;20426;-53
2022/03/23 01:42:15;;;;;;;24.50;14.37;;;;;;;;;;4985850;28;20484;-53
2022/03/23 01:44:41;;;;;;;28.90;14.13;;;;;;;;;;4985002;28;20513;-54
2022/03/23 01:47:12;;;;;;;20.47;12.10;;;;;;;;;;4982202;28;20901;-53
2022/03/23 01:49:52;;;;;;;19.73;12.57;;;;;;;;;;4982186;28;20430;-54
2022/03/23 01:52:19;;;;;;;16.23;12.47;;;;;;;;;;4985242;28;20425;-53
2022/03/23 01:54:46;;;;;;;14.10;11.50;;;;;;;;;;4985118;28;20994;-54
2022/03/23 01:57:14;;;;;;;19.40;11.87;;;;;;;;;;4992461;28;22386;-53
2022/03/23 01:59:40;;;;;;;20.93;12.70;;;;;;;;;;4984937;28;20438;-54
2022/03/23 02:02:08;;;;;;;23.43;12.67;;;;;;;;;;4982032;28;20427;-53
2022/03/23 02:04:34;;;;;;;17.47;13.03;;;;;;;;;;4981956;28;20423;-54
2022/03/23 02:07:00;;;;;;;18.80;12.53;;;;;;;;;;4984826;28;20485;-53
2022/03/23 02:09:27;;;;;;;16.20;12.57;;;;;;;;;;4987707;28;20438;-54
2022/03/23 02:11:54;;;;;;;22.27;14.40;;;;;;;;;;4965819;28;20482;-54
2022/03/23 02:14:20;;;;;;;12.97;10.80;;;;;;;;;;4981540;28;20435;-55
2022/03/23 02:16:47;;;;;;;20.23;12.93;;;;;;;;;;4982689;28;20511;-54
2022/03/23 02:19:13;;;;;;;18.50;12.47;;;;;;;;;;4984882;28;20864;-54
2022/03/23 02:21:43;;;;;;;16.70;12.20;;;;;;;;;;4984967;28;20423;-54
2022/03/23 02:24:09;;;;;;;16.63;11.73;;;;;;;;;;4981600;28;20428;-55
2022/03/23 02:26:37;;;;;;;17.53;11.00;;;;;;;;;;4988665;28;20916;-54
2022/03/23 02:29:04;;;;;;;15.07;11.07;;;;;;;;;;4981450;28;20435;-54
2022/03/23 02:31:30;;;;;;;19.50;11.67;;;;;;;;;;4980463;28;20430;-54
2022/03/23 02:33:56;;;;;;;17.80;11.77;;;;;;;;;;4983791;28;20431;-54
2022/03/23 02:36:22;;;;;;;17.20;11.23;;;;;;;;;;4984831;28;20990;-55
2022/03/23 02:38:48;;;;;;;20.50;12.40;;;;;;;;;;4983250;28;20747;-55
2022/03/23 02:41:14;;;;;;;20.27;12.60;;;;;;;;;;4981758;28;20495;-54
2022/03/23 02:43:41;;;;;;;17.30;11.00;;;;;;;;;;4984462;28;20814;-54
2022/03/23 02:46:11;;;;;;;15.80;10.93;;;;;;;;;;4984406;28;20418;-55
2022/03/23 02:48:37;;;;;;;16.80;11.53;;;;;;;;;;4984519;28;20415;-54
2022/03/23 02:51:04;;;;;;;13.07;10.50;;;;;;;;;;4981314;28;20849;-55
2022/03/23 03:01:53;;;;;;;18.50;11.77;;;;;;;;;;4984017;28;20546;-53
2022/03/23 03:04:19;;;;;;;16.77;10.97;;;;;;;;;;4984054;28;20429;-53
2022/03/23 03:06:46;;;;;;;15.63;11.57;;;;;;;;;;4983206;28;20418;-53
2022/03/23 03:09:12;;;;;;;22.00;10.63;;;;;;;;;;4980773;28;20422;-53
2022/03/23 03:11:38;;;;;;;15.97;11.47;;;;;;;;;;4980543;28;20423;-53
2022/03/23 03:14:05;;;;;;;18.23;11.47;;;;;;;;;;4983870;28;20456;-53
2022/03/23 03:16:31;;;;;;;15.63;11.53;;;;;;;;;;4983468;28;20944;-53
2022/03/23 03:18:57;;;;;;;21.10;11.87;;;;;;;;;;4983629;28;20467;-53
2022/03/23 03:21:23;;;;;;;20.60;12.47;;;;;;;;;;4983785;28;20489;-53
2022/03/23 03:23:49;;;;;;;15.67;11.10;;;;;;;;;;4982441;28;20418;-54
2022/03/23 03:26:16;;;;;;;20.40;12.13;;;;;;;;;;4980410;28;20508;-53
2022/03/23 03:28:43;;;;;;;14.30;10.60;;;;;;;;;;4980623;28;20959;-53
2022/03/23 03:31:12;;;;;;;20.50;13.07;;;;;;;;;;4983493;28;20422;-54
2022/03/23 03:33:38;;;;;;;12.40;10.00;;;;;;;;;;4983421;28;20452;-53
2022/03/23 03:36:05;;;;;;;14.40;11.80;;;;;;;;;;4980264;28;20426;-53
2022/03/23 03:38:32;;;;;;;14.17;10.40;;;;;;;;;;4982099;28;20465;-54
2022/03/23 03:40:58;;;;;;;20.90;11.90;;;;;;;;;;4980833;28;20430;-53
2022/03/23 03:43:27;;;;;;;16.20;11.43;;;;;;;;;;4979718;28;20435;-54
2022/03/23 03:45:53;;;;;;;16.07;10.23;;;;;;;;;;4981929;28;20423;-53
2022/03/23 03:48:19;;;;;;;14.77;11.30;;;;;;;;;;4983582;28;20430;-54
2022/03/23 03:50:45;;;;;;;18.43;10.60;;;;;;;;;;4965444;28;20442;-54
2022/03/23 03:53:11;;;;;;;20.93;10.53;;;;;;;;;;4983145;28;20465;-53
2022/03/23 03:55:38;;;;;;;19.70;11.57;;;;;;;;;;4983399;28;20422;-53
2022/03/23 03:58:05;;;;;;;35.63;11.90;;;;;;;;;;4986931;28;20469;-53
2022/03/23 04:00:34;;;;;;;18.43;11.10;;;;;;;;;;4980189;28;20769;-53
2022/03/23 04:03:00;;;;;;;17.60;11.20;;;;;;;;;;4982655;28;20429;-55
2022/03/23 04:05:28;;;;;;;12.87;9.93;;;;;;;;;;4983327;28;20422;-55
2022/03/23 04:07:54;;;;;;;12.30;9.77;;;;;;;;;;4979792;28;20530;-54
2022/03/23 04:10:20;;;;;;;20.40;11.93;;;;;;;;;;4983173;28;20518;-54
2022/03/23 04:12:46;;;;;;;15.30;11.10;;;;;;;;;;4981995;28;20468;-55
2022/03/23 04:15:14;;;;;;;20.73;10.87;;;;;;;;;;4979800;28;20422;-54
2022/03/23 04:17:40;;;;;;;14.80;10.33;;;;;;;;;;4979693;28;20458;-55
2022/03/23 04:20:06;;;;;;;20.10;10.83;;;;;;;;;;4983258;28;20418;-54
2022/03/23 04:22:33;;;;;;;17.97;11.73;;;;;;;;;;4983306;28;20432;-54
2022/03/23 04:24:59;;;;;;;17.30;10.77;;;;;;;;;;4982626;28;20983;-55
2022/03/23 04:27:25;;;;;;;16.27;10.83;;;;;;;;;;4982842;28;20426;-54
2022/03/23 04:29:51;;;;;;;17.77;11.63;;;;;;;;;;4981423;28;20505;-54
2022/03/23 04:32:18;;;;;;;20.13;11.27;;;;;;;;;;4979535;28;20449;-55
2022/03/23 04:34:43;;;;;;;14.90;11.20;;;;;;;;;;4962843;28;20427;-53
2022/03/23 04:37:10;;;;;;;19.00;12.53;;;;;;;;;;4981745;28;20446;-54
2022/03/23 04:39:36;;;;;;;16.27;11.43;;;;;;;;;;4979821;28;20429;-54
2022/03/23 04:42:02;;;;;;;12.93;10.40;;;;;;;;;;4986726;28;20525;-54
2022/03/23 04:44:28;;;;;;;18.23;10.47;;;;;;;;;;4979250;28;20473;-54
2022/03/23 04:46:54;;;;;;;18.17;11.03;;;;;;;;;;4963957;28;20431;-54
2022/03/23 04:49:20;;;;;;;20.50;11.03;;;;;;;;;;4991899;28;20439;-53
2022/03/23 04:51:46;;;;;;;15.70;11.30;;;;;;;;;;4990294;28;20924;-54
2022/03/23 04:54:12;;;;;;;21.40;11.17;;;;;;;;;;4990104;28;20470;-54
2022/03/23 04:56:38;;;;;;;13.60;10.43;;;;;;;;;;4992802;28;20576;-54
2022/03/23 04:59:05;;;;;;;15.53;10.60;;;;;;;;;;4989198;28;20473;-55
2022/03/23 05:01:31;;;;;;;14.60;10.23;;;;;;;;;;4975414;28;20434;-55
2022/03/23 05:03:57;;;;;;;25.17;10.77;;;;;;;;;;4986460;28;20435;-55
2022/03/23 05:06:23;;;;;;;15.90;9.90;;;;;;;;;;4989878;28;20442;-55
2022/03/23 05:08:49;;;;;;;20.40;10.90;;;;;;;;;;4969138;28;20438;-54
2022/03/23 05:11:15;;;;;;;17.70;10.67;;;;;;;;;;4987532;28;20512;-55
2022/03/23 05:13:41;;;;;;;18.90;13.63;;;;;;;;;;4986710;28;20434;-54
2022/03/23 05:16:07;;;;;;;21.40;11.87;;;;;;;;;;4991123;28;20835;-54
2022/03/23 05:18:34;;;;;;;14.60;10.37;;;;;;;;;;4985109;28;20553;-54
2022/03/23 05:21:00;;;;;;;16.90;11.30;;;;;;;;;;4989054;28;20438;-56
2022/03/23 05:23:26;;;;;;;17.53;11.77;;;;;;;;;;4992049;28;20437;-55
2022/03/23 05:25:52;;;;;;;15.50;11.83;;;;;;;;;;4989144;28;20430;-55
2022/03/23 05:28:18;;;;;;;15.57;9.83;;;;;;;;;;4990093;28;20274;-55
2022/03/23 05:30:44;;;;;;;14.13;10.00;;;;;;;;;;4987344;28;20528;-55
2022/03/23 05:33:10;;;;;;;18.67;12.10;;;;;;;;;;4987350;28;20492;-55
2022/03/23 05:35:36;;;;;;;20.33;11.50;;;;;;;;;;4987418;28;20446;-57
2022/03/23 05:38:02;;;;;;;18.20;11.87;;;;;;;;;;4981177;28;20469;-57
2022/03/23 05:40:28;;;;;;;24.47;12.43;;;;;;;;;;4986707;28;20434;-55
2022/03/23 05:42:54;;;;;;;20.10;13.73;;;;;;;;;;4984123;28;20470;-57
2022/03/23 05:45:20;;;;;;;25.80;15.00;;;;;;;;;;4985447;28;20828;-56
2022/03/23 05:47:49;;;;;;;18.83;13.37;;;;;;;;;;4985552;28;20541;-56
2022/03/23 05:50:15;;;;;;;22.90;11.93;;;;;;;;;;4983694;28;20446;-55
2022/03/23 05:52:42;;;;;;;17.80;12.20;;;;;;;;;;4985044;28;20478;-56
2022/03/23 05:55:08;;;;;;;22.53;12.50;;;;;;;;;;4984660;28;20516;-56
2022/03/23 05:57:34;;;;;;;17.03;12.80;;;;;;;;;;4991532;28;20508;-55
2022/03/23 06:00:01;;;;;;;19.20;11.40;;;;;;;;;;4987525;28;20434;-56
2022/03/23 06:02:26;;;;;;;18.07;11.97;;;;;;;;;;4983732;28;20438;-55
2022/03/23 06:04:52;;;;;;;20.50;12.17;;;;;;;;;;4984541;28;20453;-57
2022/03/23 06:07:18;;;;;;;16.30;10.97;;;;;;;;;;4984222;28;20442;-57
2022/03/23 06:09:45;;;;;;;15.20;10.90;;;;;;;;;;4983335;28;20462;-54
2022/03/23 06:12:12;;;;;;;16.77;12.73;;;;;;;;;;4987697;28;20521;-54
2022/03/23 06:14:38;;;;;;;14.90;11.03;;;;;;;;;;4986287;28;20827;-54
2022/03/23 06:17:06;;;;;;;27.10;12.20;;;;;;;;;;4982420;28;20422;-54
2022/03/23 06:19:32;;;;;;;20.10;12.20;;;;;;;;;;4983391;28;20433;-54
2022/03/23 06:21:58;;;;;;;19.90;12.63;;;;;;;;;;4980434;28;20434;-54
2022/03/23 06:24:24;;;;;;;21.37;12.57;;;;;;;;;;4980660;28;20800;-53
2022/03/23 06:26:50;;;;;;;16.57;11.50;;;;;;;;;;4982144;28;20485;-54
2022/03/23 06:29:16;;;;;;;18.50;11.50;;;;;;;;;;4984825;28;20516;-54
2022/03/23 06:31:42;;;;;;;16.40;11.17;;;;;;;;;;4983612;28;20496;-54
2022/03/23 06:34:08;;;;;;;19.60;11.13;;;;;;;;;;4981653;28;20429;-54
2022/03/23 06:36:35;;;;;;;18.67;12.30;;;;;;;;;;4981415;28;20513;-55
2022/03/23 06:39:01;;;;;;;19.37;12.10;;;;;;;;;;4984359;28;20466;-55
2022/03/23 06:41:27;;;;;;;20.00;11.37;;;;;;;;;;4981254;28;20485;-55
2022/03/23 06:43:54;;;;;;;30.20;11.90;;;;;;;;;;4982855;28;20432;-55
2022/03/23 06:46:20;;;;;;;18.23;11.33;;;;;;;;;;4984468;28;20430;-54
2022/03/23 06:48:47;;;;;;;22.37;12.67;;;;;;;;;;4983739;28;20436;-55
2022/03/23 06:51:13;;;;;;;31.77;12.93;;;;;;;;;;4981070;28;20458;-54
2022/03/23 06:53:39;;;;;;;19.93;11.07;;;;;;;;;;4980731;28;21060;-55
2022/03/23 06:56:05;;;;;;;14.10;11.83;;;;;;;;;;4984466;28;20422;-55
2022/03/23 06:58:31;;;;;;;38.67;13.03;;;;;;;;;;4985294;28;20463;-55
2022/03/23 07:00:57;;;;;;;16.07;12.50;;;;;;;;;;4983379;28;20474;-55
2022/03/23 07:03:27;;;;;;;18.50;12.70;;;;;;;;;;4984190;28;20423;-55
2022/03/23 07:05:53;;;;;;;20.30;12.80;;;;;;;;;;4982503;28;20197;-54
2022/03/23 07:11:04;;;;;;;20.80;12.23;;;;;;;;;;4981208;28;20426;-55
2022/03/23 07:13:31;;;;;;;21.20;13.67;;;;;;;;;;4980444;28;20426;-55
2022/03/23 07:15:58;;;;;;;22.63;13.10;;;;;;;;;;4983110;28;20519;-54
2022/03/23 07:18:24;;;;;;;15.87;13.67;;;;;;;;;;4983245;28;20462;-53
2022/03/23 07:20:50;;;;;;;17.23;13.70;;;;;;;;;;4982520;28;20433;-55
2022/03/23 07:23:16;;;;;;;17.67;12.40;;;;;;;;;;4980506;28;20419;-54
2022/03/23 07:25:42;;;;;;;18.20;13.77;;;;;;;;;;4980724;28;20519;-53
2022/03/23 07:28:08;;;;;;;17.30;14.30;;;;;;;;;;4983643;28;20855;-55
2022/03/23 07:30:35;;;;;;;17.87;13.03;;;;;;;;;;4983713;28;21023;-54
2022/03/23 07:33:04;;;;;;;19.83;13.00;;;;;;;;;;4980778;28;20266;-54
2022/03/23 07:35:30;;;;;;;21.33;13.87;;;;;;;;;;4980420;28;20489;-54
2022/03/23 07:37:56;;;;;;;19.17;13.27;;;;;;;;;;4982213;28;21027;-54
2022/03/23 07:40:22;;;;;;;17.03;14.03;;;;;;;;;;4983780;28;20418;-55
2022/03/23 07:42:48;;;;;;;17.47;11.87;;;;;;;;;;4982136;28;20422;-54
2022/03/23 07:45:14;;;;;;;16.10;12.37;;;;;;;;;;4980080;28;20920;-54
2022/03/23 07:47:40;;;;;;;14.87;11.80;;;;;;;;;;4980236;28;20834;-54
2022/03/23 07:50:07;;;;;;;14.80;12.43;;;;;;;;;;4983673;28;20941;-54
2022/03/23 07:52:34;;;;;;;14.90;12.00;;;;;;;;;;4983425;28;20458;-54
2022/03/23 07:55:00;;;;;;;15.00;12.23;;;;;;;;;;4983229;28;20469;-54
2022/03/23 07:57:27;;;;;;;29.73;13.77;;;;;;;;;;4990448;28;20910;-53
2022/03/23 07:59:57;;;;;;;16.43;13.80;;;;;;;;;;4981276;28;20513;-54
2022/03/23 08:02:24;;;;;;;16.90;13.00;;;;;;;;;;4980026;28;20454;-54
2022/03/23 08:04:50;;;;;;;16.53;12.73;;;;;;;;;;4981195;28;20668;-54
2022/03/23 08:07:16;;;;;;;19.77;12.43;;;;;;;;;;4981441;28;20500;-54
2022/03/23 08:09:42;;;;;;;15.87;12.13;;;;;;;;;;4980011;28;20510;-54
2022/03/23 08:12:08;;;;;;;18.50;13.57;;;;;;;;;;4982973;28;20586;-54
2022/03/23 08:14:34;;;;;;;15.80;13.43;;;;;;;;;;4983141;28;20871;-54
2022/03/23 08:17:00;;;;;;;18.10;12.87;;;;;;;;;;4980341;28;20458;-54
2022/03/23 08:19:26;;;;;;;15.13;12.63;;;;;;;;;;4979702;28;20537;-54
2022/03/23 08:21:53;;;;;;;27.60;12.30;;;;;;;;;;4981377;28;20901;-54
2022/03/23 08:24:19;;;;;;;15.57;12.00;;;;;;;;;;4983123;28;20427;-54
2022/03/23 08:26:46;;;;;;;14.40;11.67;;;;;;;;;;4982282;28;20455;-54
2022/03/23 08:29:12;;;;;;;19.00;12.83;;;;;;;;;;4981410;28;20438;-54
2022/03/23 08:31:38;;;;;;;24.13;13.20;;;;;;;;;;4983751;28;20767;-54
2022/03/23 08:34:04;;;;;;;19.70;14.60;;;;;;;;;;4986845;28;20422;-54
2022/03/23 08:36:31;;;;;;;13.57;11.87;;;;;;;;;;4986990;28;20422;-54
2022/03/23 08:38:57;;;;;;;17.50;12.70;;;;;;;;;;4984496;28;20528;-54
2022/03/23 08:41:23;;;;;;;16.10;12.63;;;;;;;;;;4983272;28;20431;-54
2022/03/23 08:43:49;;;;;;;24.20;12.40;;;;;;;;;;4984499;28;20489;-54
2022/03/23 08:46:15;;;;;;;18.90;12.33;;;;;;;;;;4986762;28;20896;-54
2022/03/23 08:48:41;;;;;;;14.00;11.13;;;;;;;;;;4986624;28;20190;-54
2022/03/23 08:51:07;;;;;;;15.30;13.20;;;;;;;;;;4983429;28;20920;-54
2022/03/23 08:53:33;;;;;;;18.17;13.00;;;;;;;;;;4982907;28;20533;-54
2022/03/23 08:55:59;;;;;;;30.03;11.60;;;;;;;;;;4985571;28;20430;-54
2022/03/23 08:58:26;;;;;;;15.87;12.57;;;;;;;;;;4988255;28;20454;-54
2022/03/23 09:00:52;;;;;;;14.20;10.87;;;;;;;;;;4984726;28;20418;-54
2022/03/23 09:03:18;;;;;;;24.07;13.37;;;;;;;;;;4986387;28;20444;-54
2022/03/23 09:05:44;;;;;;;18.60;14.10;;;;;;;;;;4985965;28;20860;-54
2022/03/23 09:08:10;;;;;;;20.50;13.13;;;;;;;;;;4981860;28;20509;-54
2022/03/23 09:10:36;;;;;;;13.10;11.70;;;;;;;;;;4986045;28;20461;-54
2022/03/23 09:13:03;;;;;;;16.80;13.50;;;;;;;;;;4983211;28;20437;-54
2022/03/23 09:15:30;;;;;;;27.90;12.63;;;;;;;;;;4982840;28;20486;-54
2022/03/23 09:17:59;;;;;;;13.47;11.47;;;;;;;;;;4984904;28;20941;-54
2022/03/23 09:20:28;;;;;;;14.53;12.00;;;;;;;;;;4986067;28;20445;-54
2022/03/23 09:22:54;;;;;;;17.27;12.17;;;;;;;;;;4984133;28;20414;-54
2022/03/23 09:25:22;;;;;;;15.73;13.17;;;;;;;;;;4982582;28;20419;-55
2022/03/23 09:27:48;;;;;;;15.80;11.90;;;;;;;;;;4983628;28;20423;-55
2022/03/23 09:30:15;;;;;;;16.33;13.70;;;;;;;;;;4985973;28;20418;-55
2022/03/23 09:32:41;;;;;;;22.37;12.60;;;;;;;;;;4985919;28;20492;-55
2022/03/23 09:35:08;;;;;;;15.80;13.27;;;;;;;;;;4982458;28;20430;-55
2022/03/23 09:37:49;;;;;;;17.40;13.00;;;;;;;;;;4982317;28;20451;-55
2022/03/23 09:40:15;;;;;;;16.33;12.90;;;;;;;;;;4981841;28;20482;-54
2022/03/23 09:42:41;;;;;;;14.70;12.87;;;;;;;;;;4982429;28;20502;-55
2022/03/23 09:45:08;;;;;;;19.90;14.40;;;;;;;;;;4985652;28;20418;-55
2022/03/23 09:47:34;;;;;;;16.87;12.50;;;;;;;;;;4985826;28;20524;-55
2022/03/23 09:50:00;;;;;;;22.20;13.67;;;;;;;;;;4982734;28;20422;-55
2022/03/23 09:52:27;;;;;;;16.00;13.47;;;;;;;;;;4982220;28;20419;-55
2022/03/23 09:54:53;;;;;;;14.60;13.07;;;;;;;;;;4983543;28;20227;-56
2022/03/23 09:57:19;;;;;;;13.03;11.63;;;;;;;;;;4992579;28;20430;-55
2022/03/23 09:59:45;;;;;;;21.17;14.07;;;;;;;;;;4984652;28;20572;-55
2022/03/23 10:02:34;;;;;;;29.77;13.93;;;;;;;;;;4982037;28;20424;-55
2022/03/23 10:05:19;;;;;;;16.07;11.87;;;;;;;;;;4948067;28;20924;-55
2022/03/23 10:08:03;;;;;;;22.50;11.00;;;;;;;;;;4980089;28;20461;-55
2022/03/23 10:10:38;;;;;;;15.30;12.77;;;;;;;;;;4985160;28;20959;-55
2022/03/23 10:13:24;;;;;;;18.90;12.63;;;;;;;;;;4981713;28;20975;-55
2022/03/23 10:16:02;;;;;;;14.03;11.43;;;;;;;;;;4983069;28;20418;-55
2022/03/23 10:18:52;;;;;;;17.47;12.77;;;;;;;;;;4985110;28;21030;-55
2022/03/23 10:21:22;;;;;;;15.80;13.20;;;;;;;;;;4974059;28;20423;-55
2022/03/23 10:24:01;;;;;;;19.57;11.90;;;;;;;;;;4982704;28;21004;-55
2022/03/23 10:26:27;;;;;;;11.53;10.40;;;;;;;;;;4984623;28;20514;-55
2022/03/23 10:28:54;;;;;;;27.60;13.30;;;;;;;;;;4983140;28;20426;-55
2022/03/23 10:31:21;;;;;;;19.93;12.17;;;;;;;;;;4981569;28;20427;-55
2022/03/23 10:34:10;;;;;;;16.60;13.83;;;;;;;;;;4982332;28;20423;-55
2022/03/23 10:36:39;;;;;;;19.00;14.30;;;;;;;;;;4984684;28;20501;-55
2022/03/23 10:39:06;;;;;;;19.77;13.87;;;;;;;;;;4984257;28;20804;-55
2022/03/23 10:41:32;;;;;;;21.83;14.20;;;;;;;;;;4981094;28;20428;-55
2022/03/23 10:43:58;;;;;;;15.03;12.97;;;;;;;;;;4983736;28;20433;-55
2022/03/23 10:46:25;;;;;;;20.00;13.63;;;;;;;;;;4984400;28;20427;-55
2022/03/23 10:48:52;;;;;;;24.60;14.00;;;;;;;;;;4983102;28;20846;-55
2022/03/23 10:51:29;;;;;;;13.87;12.37;;;;;;;;;;4981000;28;20460;-55
2022/03/23 10:53:55;;;;;;;14.20;12.57;;;;;;;;;;4964763;28;20478;-55
2022/03/23 10:56:29;;;;;;;17.97;13.57;;;;;;;;;;4984171;28;20457;-55
2022/03/23 10:59:16;;;;;;;19.03;12.60;;;;;;;;;;4984177;28;20537;-55
2022/03/23 11:02:11;;;;;;;17.57;15.10;;;;;;;;;;4978583;28;20434;-55
2022/03/23 11:04:43;;;;;;;16.83;13.73;;;;;;;;;;4964341;28;20439;-55
2022/03/23 11:07:22;;;;;;;17.43;12.80;;;;;;;;;;4983035;28;20480;-55
2022/03/23 11:18:10;;;;;;;17.50;13.07;;;;;;;;;;5141718;27;20484;-55
2022/03/23 11:20:53;;;;;;;14.50;12.90;;;;;;;;;;5149561;27;20441;-55
2022/03/23 11:23:26;;;;;;;23.00;14.10;;;;;;;;;;5143306;27;20411;-55
2022/03/23 11:25:53;;;;;;;20.00;14.40;;;;;;;;;;5149226;27;20415;-55
2022/03/23 11:28:20;;;;;;;16.00;12.03;;;;;;;;;;5149611;27;20746;-55
2022/03/23 11:30:47;;;;;;;18.80;14.20;;;;;;;;;;5149444;27;20503;-55
2022/03/23 11:33:15;;;;;;;19.60;14.57;;;;;;;;;;5149449;27;20419;-55
2022/03/23 11:35:47;;;;;;;15.27;13.67;;;;;;;;;;5149279;27;20415;-55
2022/03/23 11:38:14;;;;;;;21.13;12.87;;;;;;;;;;5144641;27;20418;-55
2022/03/23 11:40:44;;;;;;;17.53;13.73;;;;;;;;;;5145402;27;20418;-55
2022/03/23 11:43:14;;;;;;;16.20;13.03;;;;;;;;;;5122981;27;20426;-55
2022/03/23 11:45:41;;;;;;;18.70;14.07;;;;;;;;;;5149356;27;20426;-55
2022/03/23 11:48:15;;;;;;;33.00;15.30;;;;;;;;;;5141198;27;20438;-56
2022/03/23 11:50:57;;;;;;;27.87;13.87;;;;;;;;;;5149047;27;20490;-55
2022/03/23 11:53:23;;;;;;;16.60;12.20;;;;;;;;;;5148996;27;20469;-56
2022/03/23 11:55:51;;;;;;;14.60;12.30;;;;;;;;;;5148641;27;20908;-55
2022/03/23 11:58:21;;;;;;;17.80;12.93;;;;;;;;;;5140567;27;20265;-55
2022/03/23 12:00:51;;;;;;;16.10;11.60;;;;;;;;;;5148799;27;20419;-55
2022/03/23 12:03:44;;;;;;;18.13;13.90;;;;;;;;;;5148953;27;20418;-55
2022/03/23 12:06:13;;;;;;;17.57;15.13;;;;;;;;;;5140774;27;20454;-56
2022/03/23 12:08:47;;;;;;;16.33;13.40;;;;;;;;;;5143207;27;20966;-55
2022/03/23 12:11:31;;;;;;;19.43;13.50;;;;;;;;;;5140836;27;20932;-55
2022/03/23 12:13:58;;;;;;;22.93;15.03;;;;;;;;;;5148344;27;20473;-55
2022/03/23 12:16:43;;;;;;;17.37;14.17;;;;;;;;;;5148462;27;20932;-55
2022/03/23 12:19:10;;;;;;;17.40;14.30;;;;;;;;;;5140518;27;20459;-55
2022/03/23 12:21:44;;;;;;;28.53;17.07;;;;;;;;;;5148437;27;20415;-55
2022/03/23 12:24:14;;;;;;;17.13;15.33;;;;;;;;;;5140633;27;20635;-55
2022/03/23 12:26:44;;;;;;;18.20;14.97;;;;;;;;;;5134878;27;20461;-55
2022/03/23 12:29:13;;;;;;;22.63;15.07;;;;;;;;;;5126772;27;20427;-55
2022/03/23 12:31:40;;;;;;;21.30;16.03;;;;;;;;;;5134425;27;20447;-55
2022/03/23 12:34:16;;;;;;;18.90;14.87;;;;;;;;;;5125882;27;20463;-56
2022/03/23 12:36:56;;;;;;;17.20;14.17;;;;;;;;;;5134058;27;20423;-55
2022/03/23 12:39:30;;;;;;;21.03;15.90;;;;;;;;;;5128828;27;20468;-55
2022/03/23 12:41:56;;;;;;;20.17;15.77;;;;;;;;;;5133876;27;20420;-55
2022/03/23 12:44:30;;;;;;;17.63;14.73;;;;;;;;;;5135438;27;20968;-55
2022/03/23 12:46:56;;;;;;;22.50;13.93;;;;;;;;;;5135269;27;20447;-55
2022/03/23 12:58:03;;;;;;;19.67;15.80;;;;;;;;;;5127565;27;20531;-55
2022/03/23 13:00:34;;;;;;;18.03;13.90;;;;;;;;;;5135207;27;20499;-55
2022/03/23 13:03:00;;;;;;;19.17;15.40;;;;;;;;;;5135046;27;20403;-55
2022/03/23 13:05:26;;;;;;;22.07;15.37;;;;;;;;;;5134588;27;20770;-55
2022/03/23 13:07:52;;;;;;;19.57;15.50;;;;;;;;;;5129406;27;20186;-55
2022/03/23 13:10:24;;;;;;;25.27;15.50;;;;;;;;;;5134731;27;20888;-55
2022/03/23 13:12:51;;;;;;;16.63;13.13;;;;;;;;;;5134866;27;20411;-55
2022/03/23 13:15:18;;;;;;;20.03;13.73;;;;;;;;;;5134651;27;20986;-54
2022/03/23 13:17:45;;;;;;;21.00;13.80;;;;;;;;;;5134547;27;20420;-55
2022/03/23 13:20:12;;;;;;;17.00;13.53;;;;;;;;;;5134287;27;20866;-55
2022/03/23 13:22:39;;;;;;;18.20;13.90;;;;;;;;;;5134289;27;20412;-55
2022/03/23 13:25:15;;;;;;;19.07;14.50;;;;;;;;;;5134440;27;20451;-55
2022/03/23 13:27:41;;;;;;;18.60;14.90;;;;;;;;;;5134463;27;20909;-55
2022/03/23 13:30:10;;;;;;;22.33;13.87;;;;;;;;;;5134454;27;20810;-54
2022/03/23 13:32:39;;;;;;;32.50;14.90;;;;;;;;;;5134223;27;20476;-55
2022/03/23 13:35:25;;;;;;;24.97;14.10;;;;;;;;;;5133771;27;20456;-55
2022/03/23 13:38:11;;;;;;;29.13;13.97;;;;;;;;;;5131781;27;20412;-55
2022/03/23 13:43:26;;;;;;;21.97;14.27;;;;;;;;;;5128850;27;20598;-55
2022/03/23 13:45:56;;;;;;;23.27;13.80;;;;;;;;;;5134659;27;20423;-54
2022/03/23 13:48:23;;;;;;;20.40;15.17;;;;;;;;;;5134607;27;20419;-54
2022/03/23 13:50:56;;;;;;;17.23;13.23;;;;;;;;;;5134636;27;20456;-54
2022/03/23 13:53:22;;;;;;;18.77;13.53;;;;;;;;;;5134766;27;20458;-54
2022/03/23 13:55:49;;;;;;;13.40;11.90;;;;;;;;;;5134186;27;20535;-54
2022/03/23 13:58:18;;;;;;;25.50;13.70;;;;;;;;;;5129649;27;20890;-54
2022/03/23 14:00:45;;;;;;;22.53;16.07;;;;;;;;;;5123134;27;20423;-54
2022/03/23 14:03:13;;;;;;;19.50;14.63;;;;;;;;;;5134249;27;20455;-54
2022/03/23 14:05:39;;;;;;;18.10;13.47;;;;;;;;;;5134185;27;20412;-56
2022/03/23 14:08:05;;;;;;;23.63;16.80;;;;;;;;;;5119083;27;20409;-56
2022/03/23 14:10:35;;;;;;;21.03;14.97;;;;;;;;;;5128999;27;20897;-55
2022/03/23 14:13:04;;;;;;;19.60;15.57;;;;;;;;;;5133419;27;20404;-54
2022/03/23 14:15:36;;;;;;;21.37;16.40;;;;;;;;;;5133924;27;20865;-55
2022/03/23 14:18:03;;;;;;;23.93;16.17;;;;;;;;;;5133726;27;20913;-55
2022/03/23 14:20:30;;;;;;;28.23;14.73;;;;;;;;;;5133341;27;20919;-55
2022/03/23 14:22:56;;;;;;;24.53;15.57;;;;;;;;;;5133669;27;20408;-55
2022/03/23 14:25:24;;;;;;;26.40;13.63;;;;;;;;;;5133586;27;20415;-55
2022/03/23 14:27:54;;;;;;;20.40;15.50;;;;;;;;;;5133211;27;20761;-55
2022/03/23 14:30:23;;;;;;;22.37;15.77;;;;;;;;;;5133336;27;20408;-55
2022/03/23 14:32:51;;;;;;;23.80;16.67;;;;;;;;;;5133510;27;20456;-55
2022/03/23 14:35:20;;;;;;;23.90;14.90;;;;;;;;;;5133322;27;20898;-55
2022/03/23 14:37:50;;;;;;;25.10;15.33;;;;;;;;;;5127546;27;20417;-55
2022/03/23 14:40:36;;;;;;;24.33;15.13;;;;;;;;;;5133084;27;20467;-55
2022/03/23 14:43:25;;;;;;;25.33;15.47;;;;;;;;;;5114403;27;20945;-55
2022/03/23 14:45:51;;;;;;;22.07;15.83;;;;;;;;;;5132843;27;20420;-55
2022/03/23 14:48:22;;;;;;;26.30;16.63;;;;;;;;;;5132779;27;20420;-55
2022/03/23 14:50:49;;;;;;;22.43;17.27;;;;;;;;;;5133118;27;20448;-55
2022/03/23 14:53:16;;;;;;;20.27;15.77;;;;;;;;;;5133290;27;20411;-55